Terminal Aerodrome Forecast
Issued by NWS Lake Charles, LA

Home | Current Version | Previous Version | Text Only | Print | Product List | Glossary On
Versions: 1 2 3 4 5 6 7 8 9 10 11 12 13 14 15
525
FTUS44 KLCH 171123
TAFLFT
TAF
KLFT 171123Z 1712/1812 17008KT P6SM BKN007 OVC015
     FM171500 17009KT P6SM VCSH OVC035
     FM180200 15003KT P6SM VCSH SCT005 OVC010=

USA.gov is the U.S. government's official web portal to all federal, state and local government web resources and services.